createdAt,value
2022-10-05T00:00:28.662Z,11.40
2022-10-05T00:01:27.983Z,11.38
2022-10-05T00:02:27.931Z,11.36
2022-10-05T00:03:27.913Z,11.35
2022-10-05T00:04:27.913Z,11.35
2022-10-05T00:05:27.935Z,11.34
2022-10-05T00:06:28.052Z,11.34
2022-10-05T00:07:27.851Z,11.34
2022-10-05T00:08:27.850Z,11.35
2022-10-05T00:09:27.842Z,11.37
2022-10-05T00:10:27.833Z,11.39
2022-10-05T00:11:27.820Z,11.40
2022-10-05T00:12:28.145Z,11.41
2022-10-05T00:13:27.807Z,11.42
2022-10-05T00:14:27.801Z,11.42
2022-10-05T00:15:27.781Z,11.41
2022-10-05T00:16:27.848Z,11.39
2022-10-05T00:17:27.749Z,11.37
2022-10-05T00:18:27.932Z,11.35
2022-10-05T00:19:27.731Z,11.34
2022-10-05T00:20:27.728Z,11.33
2022-10-05T00:21:27.711Z,11.32
2022-10-05T00:22:27.701Z,11.31
2022-10-05T00:23:27.695Z,11.29
2022-10-05T00:24:27.832Z,11.26
2022-10-05T00:25:27.671Z,11.23
2022-10-05T00:26:27.698Z,11.19
2022-10-05T00:27:27.656Z,11.15
2022-10-05T00:28:27.737Z,11.11
2022-10-05T00:29:27.648Z,11.07
2022-10-05T00:30:27.797Z,11.02
2022-10-05T00:31:27.704Z,10.98
2022-10-05T00:32:27.600Z,10.94
2022-10-05T00:33:27.605Z,10.90
2022-10-05T00:34:27.572Z,10.87
2022-10-05T00:35:27.571Z,10.83
2022-10-05T00:36:27.712Z,10.80
2022-10-05T00:37:27.543Z,10.77
2022-10-05T00:38:27.528Z,10.74
2022-10-05T00:39:27.521Z,10.71
2022-10-05T00:40:27.507Z,10.69
2022-10-05T00:41:27.498Z,10.67
2022-10-05T00:42:27.849Z,10.66
2022-10-05T00:43:27.482Z,10.65
2022-10-05T00:44:27.468Z,10.64
2022-10-05T00:45:27.508Z,10.64
2022-10-05T00:46:27.433Z,10.63
2022-10-05T00:47:27.452Z,10.63
2022-10-05T00:48:27.764Z,10.63
2022-10-05T00:49:27.412Z,10.62
2022-10-05T00:50:27.402Z,10.62
2022-10-05T00:51:27.389Z,10.62
2022-10-05T00:52:27.375Z,10.61
2022-10-05T00:53:27.373Z,10.60
2022-10-05T00:54:27.543Z,10.59
2022-10-05T00:55:27.436Z,10.58
2022-10-05T00:56:27.349Z,10.57
2022-10-05T00:57:27.331Z,10.56
2022-10-05T00:58:27.301Z,10.55
2022-10-05T00:59:27.291Z,10.54
2022-10-05T01:00:35.980Z,10.53
2022-10-05T01:01:27.347Z,10.52
2022-10-05T01:02:27.288Z,10.51
2022-10-05T01:03:27.416Z,10.50
2022-10-05T01:04:34.755Z,10.49
2022-10-05T01:05:27.240Z,10.48
2022-10-05T01:06:27.225Z,10.47
2022-10-05T01:07:27.225Z,10.47
2022-10-05T01:08:27.218Z,10.46
2022-10-05T01:09:27.880Z,10.46
2022-10-05T01:10:27.213Z,10.44
2022-10-05T01:11:27.192Z,10.43
2022-10-05T01:12:27.157Z,10.42
2022-10-05T01:13:27.180Z,10.41
2022-10-05T01:14:27.134Z,10.39
2022-10-05T01:15:27.289Z,10.38
2022-10-05T01:16:27.149Z,10.37
2022-10-05T01:17:27.112Z,10.35
2022-10-05T01:18:27.107Z,10.34
2022-10-05T01:19:27.092Z,10.32
2022-10-05T01:20:27.073Z,10.29
2022-10-05T01:21:27.224Z,10.26
2022-10-05T01:22:27.065Z,10.23
2022-10-05T01:23:27.046Z,10.20
2022-10-05T01:24:27.042Z,10.18
2022-10-05T01:25:27.023Z,10.16
2022-10-05T01:26:27.009Z,10.15
2022-10-05T01:27:27.158Z,10.14
2022-10-05T01:28:27.039Z,10.13
2022-10-05T01:29:27.313Z,10.11
2022-10-05T01:30:26.984Z,10.10
2022-10-05T01:31:27.023Z,10.09
2022-10-05T01:32:26.957Z,10.08
2022-10-05T01:33:26.933Z,10.06
2022-10-05T01:34:26.943Z,10.05
2022-10-05T01:35:27.184Z,10.03
2022-10-05T01:36:26.915Z,10.02
2022-10-05T01:37:26.896Z,10.00
2022-10-05T01:38:26.882Z,9.99
2022-10-05T01:39:26.874Z,9.98
2022-10-05T01:40:26.864Z,9.97
2022-10-05T01:41:27.024Z,9.96
2022-10-05T01:42:26.843Z,9.95
2022-10-05T01:43:26.825Z,9.94
2022-10-05T01:44:26.812Z,9.93
2022-10-05T01:45:26.869Z,9.92
2022-10-05T01:46:26.800Z,9.90
2022-10-05T01:47:27.208Z,9.90
2022-10-05T01:48:26.775Z,9.89
2022-10-05T01:49:26.765Z,9.89
2022-10-05T01:50:26.752Z,9.88
2022-10-05T01:51:26.744Z,9.87
2022-10-05T01:52:26.951Z,9.86
2022-10-05T01:53:27.079Z,9.85
2022-10-05T01:54:26.780Z,9.84
2022-10-05T01:55:26.748Z,9.83
2022-10-05T01:56:26.824Z,9.83
2022-10-05T01:57:26.801Z,9.82
2022-10-05T01:58:26.777Z,9.82
2022-10-05T01:59:27.107Z,9.81
2022-10-05T02:00:26.703Z,9.81
2022-10-05T02:01:26.765Z,9.80
2022-10-05T02:02:26.736Z,9.79
2022-10-05T02:03:26.672Z,9.79
2022-10-05T02:04:59.830Z,9.78
2022-10-05T02:05:28.533Z,9.77
2022-10-05T02:06:26.601Z,9.76
2022-10-05T02:07:26.614Z,9.75
2022-10-05T02:08:26.611Z,9.74
2022-10-05T02:09:26.582Z,9.73
2022-10-05T02:10:26.555Z,9.71
2022-10-05T02:11:26.733Z,9.70
2022-10-05T02:12:26.548Z,9.68
2022-10-05T02:13:26.555Z,9.67
2022-10-05T02:14:26.544Z,9.66
2022-10-05T02:15:26.535Z,9.65
2022-10-05T02:16:26.582Z,9.65
2022-10-05T02:17:26.755Z,9.64
2022-10-05T02:18:26.493Z,9.63
2022-10-05T02:19:26.465Z,9.63
2022-10-05T02:20:26.502Z,9.62
2022-10-05T02:21:26.453Z,9.62
2022-10-05T02:22:26.437Z,9.61
2022-10-05T02:23:26.716Z,9.61
2022-10-05T02:24:26.424Z,9.61
2022-10-05T02:25:26.403Z,9.61
2022-10-05T02:26:26.415Z,9.61
2022-10-05T02:27:26.593Z,9.61
2022-10-05T02:28:26.410Z,9.60
2022-10-05T02:29:28.836Z,9.59
2022-10-05T02:30:26.340Z,9.58
2022-10-05T02:31:26.383Z,9.57
2022-10-05T02:32:26.342Z,9.56
2022-10-05T02:33:26.314Z,9.55
2022-10-05T02:34:26.343Z,9.55
2022-10-05T02:35:26.749Z,9.54
2022-10-05T02:36:26.278Z,9.53
2022-10-05T02:37:26.273Z,9.53
2022-10-05T02:38:26.278Z,9.54
2022-10-05T02:39:26.272Z,9.54
2022-10-05T02:40:26.245Z,9.54
2022-10-05T02:41:26.584Z,9.54
2022-10-05T02:42:26.224Z,9.53
2022-10-05T02:43:26.238Z,9.52
2022-10-05T02:44:26.199Z,9.51
2022-10-05T02:45:26.220Z,9.51
2022-10-05T02:46:26.298Z,9.50
2022-10-05T02:47:26.339Z,9.49
2022-10-05T02:48:26.175Z,9.48
2022-10-05T02:49:26.182Z,9.48
2022-10-05T02:50:26.174Z,9.47
2022-10-05T02:51:26.154Z,9.46
2022-10-05T02:52:26.113Z,9.45
2022-10-05T02:53:26.475Z,9.44
2022-10-05T02:54:26.097Z,9.43
2022-10-05T02:55:26.083Z,9.43
2022-10-05T02:56:26.085Z,9.43
2022-10-05T02:57:26.116Z,9.42
2022-10-05T02:58:26.042Z,9.41
2022-10-05T02:59:26.429Z,9.41
2022-10-05T03:00:26.024Z,9.40
2022-10-05T03:01:26.176Z,9.39
2022-10-05T03:02:26.061Z,9.38
2022-10-05T03:03:26.015Z,9.37
2022-10-05T03:04:25.994Z,9.38
2022-10-05T03:05:26.128Z,9.40
2022-10-05T03:06:25.975Z,9.41
2022-10-05T03:07:25.967Z,9.43
2022-10-05T03:08:25.914Z,9.45
2022-10-05T03:09:25.923Z,9.47
2022-10-05T03:10:25.910Z,9.50
2022-10-05T03:11:26.795Z,9.53
2022-10-05T03:12:25.898Z,9.56
2022-10-05T03:13:25.906Z,9.59
2022-10-05T03:14:25.895Z,9.62
2022-10-05T03:15:25.874Z,9.65
2022-10-05T03:16:25.972Z,9.68
2022-10-05T03:17:26.035Z,9.71
2022-10-05T03:18:30.462Z,9.75
2022-10-05T03:19:26.805Z,9.79
2022-10-05T03:20:25.833Z,9.82
2022-10-05T03:21:25.874Z,9.85
2022-10-05T03:22:25.797Z,9.88
2022-10-05T03:23:26.214Z,9.91
2022-10-05T03:24:25.764Z,9.93
2022-10-05T03:25:25.764Z,9.95
2022-10-05T03:26:25.728Z,9.98
2022-10-05T03:27:25.878Z,10.00
2022-10-05T03:28:25.798Z,10.01
2022-10-05T03:29:25.930Z,10.03
2022-10-05T03:30:25.714Z,10.04
2022-10-05T03:31:25.806Z,10.05
2022-10-05T03:32:25.672Z,10.05
2022-10-05T03:33:25.643Z,10.06
2022-10-05T03:34:25.644Z,10.05
2022-10-05T03:35:25.787Z,10.05
2022-10-05T03:36:25.619Z,10.05
2022-10-05T03:37:25.623Z,10.04
2022-10-05T03:38:25.808Z,10.03
2022-10-05T03:39:25.588Z,10.03
2022-10-05T03:40:25.595Z,10.02
2022-10-05T03:41:25.565Z,10.01
2022-10-05T03:42:25.546Z,10.01
2022-10-05T03:43:25.545Z,10.01
2022-10-05T03:44:25.964Z,10.00
2022-10-05T03:45:25.523Z,9.99
2022-10-05T03:46:25.610Z,9.98
2022-10-05T03:47:25.497Z,9.96
2022-10-05T03:48:25.487Z,9.94
2022-10-05T03:49:25.538Z,9.92
2022-10-05T03:50:25.613Z,9.90
2022-10-05T03:51:25.452Z,9.87
2022-10-05T03:52:25.454Z,9.85
2022-10-05T03:53:25.613Z,9.83
2022-10-05T03:54:25.418Z,9.81
2022-10-05T03:55:25.448Z,9.79
2022-10-05T03:56:25.405Z,9.76
2022-10-05T03:57:25.404Z,9.75
2022-10-05T03:58:25.384Z,9.74
2022-10-05T03:59:30.115Z,9.73
2022-10-05T04:00:26.378Z,9.72
2022-10-05T04:01:26.724Z,9.71
2022-10-05T04:02:25.419Z,9.70
2022-10-05T04:03:25.357Z,9.69
2022-10-05T04:04:25.367Z,9.67
2022-10-05T04:05:25.713Z,9.66
2022-10-05T04:06:25.297Z,9.64
2022-10-05T04:07:25.318Z,9.62
2022-10-05T04:08:25.266Z,9.60
2022-10-05T04:09:25.276Z,9.60
2022-10-05T04:10:25.225Z,9.59
2022-10-05T04:11:25.553Z,9.59
2022-10-05T04:12:25.228Z,9.59
2022-10-05T04:13:25.203Z,9.60
2022-10-05T04:14:25.198Z,9.61
2022-10-05T04:15:25.192Z,9.62
2022-10-05T04:16:25.203Z,9.62
2022-10-05T04:17:25.323Z,9.63
2022-10-05T04:18:25.144Z,9.64
2022-10-05T04:19:25.141Z,9.65
2022-10-05T04:20:25.123Z,9.66
2022-10-05T04:21:25.114Z,9.68
2022-10-05T04:22:25.104Z,9.70
2022-10-05T04:23:25.453Z,9.71
2022-10-05T04:24:25.086Z,9.73
2022-10-05T04:25:25.072Z,9.74
2022-10-05T04:26:25.059Z,9.76
2022-10-05T04:27:25.045Z,9.77
2022-10-05T04:28:28.321Z,9.79
2022-10-05T04:29:26.233Z,9.80
2022-10-05T04:30:25.017Z,9.81
2022-10-05T04:31:25.050Z,9.82
2022-10-05T04:32:24.994Z,9.82
2022-10-05T04:33:24.982Z,9.81
2022-10-05T04:34:24.971Z,9.80
2022-10-05T04:35:25.141Z,9.79
2022-10-05T04:36:24.965Z,9.78
2022-10-05T04:37:24.943Z,9.77
2022-10-05T04:38:24.935Z,9.75
2022-10-05T04:39:24.923Z,9.74
2022-10-05T04:40:24.915Z,9.71
2022-10-05T04:41:25.063Z,9.67
2022-10-05T04:42:24.919Z,9.64
2022-10-05T04:43:24.876Z,9.61
2022-10-05T04:44:24.896Z,9.57
2022-10-05T04:45:24.856Z,9.54
2022-10-05T04:46:24.905Z,9.50
2022-10-05T04:47:25.007Z,9.46
2022-10-05T04:48:24.831Z,9.43
2022-10-05T04:49:24.813Z,9.39
2022-10-05T04:50:24.805Z,9.35
2022-10-05T04:51:24.793Z,9.32
2022-10-05T04:52:24.788Z,9.28
2022-10-05T04:53:24.951Z,9.25
2022-10-05T04:54:24.762Z,9.22
2022-10-05T04:55:24.753Z,9.19
2022-10-05T04:56:24.746Z,9.17
2022-10-05T04:57:24.795Z,9.14
2022-10-05T04:58:24.710Z,9.12
2022-10-05T04:59:24.858Z,9.10
2022-10-05T05:00:24.760Z,9.08
2022-10-05T05:01:24.751Z,9.06
2022-10-05T05:02:24.669Z,9.04
2022-10-05T05:03:24.717Z,9.02
2022-10-05T05:04:24.652Z,8.99
2022-10-05T05:05:24.804Z,8.98
2022-10-05T05:06:24.632Z,8.96
2022-10-05T05:07:24.618Z,8.95
2022-10-05T05:08:24.601Z,8.93
2022-10-05T05:09:24.610Z,8.92
2022-10-05T05:10:24.583Z,8.91
2022-10-05T05:11:33.263Z,8.91
2022-10-05T05:12:32.091Z,8.90
2022-10-05T05:15:41.538Z,9.95
2022-10-05T05:16:51.192Z,9.53
2022-10-05T05:17:48.982Z,9.25
2022-10-05T05:18:58.011Z,9.09
2022-10-05T05:19:48.961Z,9.00
2022-10-05T05:20:48.948Z,8.96
2022-10-05T05:21:48.945Z,8.94
2022-10-05T05:22:52.139Z,8.93
2022-10-05T05:23:41.412Z,8.92
2022-10-05T05:24:41.413Z,8.91
2022-10-05T05:25:41.426Z,8.90
2022-10-05T05:26:41.397Z,8.89
2022-10-05T05:27:41.377Z,8.89
2022-10-05T05:28:41.566Z,8.88
2022-10-05T05:29:41.358Z,8.88
2022-10-05T05:30:41.346Z,8.88
2022-10-05T05:31:41.524Z,8.87
2022-10-05T05:32:41.458Z,8.87
2022-10-05T05:33:41.321Z,8.86
2022-10-05T05:34:41.477Z,8.85
2022-10-05T05:35:41.302Z,8.84
2022-10-05T05:36:41.273Z,8.83
2022-10-05T05:37:41.266Z,8.82
2022-10-05T05:38:41.265Z,8.82
2022-10-05T05:39:41.255Z,8.81
2022-10-05T05:40:41.483Z,8.81
2022-10-05T05:41:41.216Z,8.80
2022-10-05T05:42:41.218Z,8.80
2022-10-05T05:43:41.245Z,8.79
2022-10-05T05:44:41.198Z,8.78
2022-10-05T05:45:41.175Z,8.78
2022-10-05T05:47:42.244Z,8.76
2022-10-05T05:48:41.149Z,8.76
2022-10-05T05:49:41.136Z,8.76
2022-10-05T05:50:41.138Z,8.76
2022-10-05T05:51:41.114Z,8.75
2022-10-05T05:52:41.279Z,8.75
2022-10-05T05:53:41.135Z,8.75
2022-10-05T05:54:41.090Z,8.75
2022-10-05T05:55:41.075Z,8.75
2022-10-05T05:56:41.062Z,8.76
2022-10-05T05:57:41.057Z,8.77
2022-10-05T05:58:41.286Z,8.77
2022-10-05T05:59:41.035Z,8.78
2022-10-05T06:00:41.015Z,8.78
2022-10-05T06:01:44.562Z,8.78
2022-10-05T06:02:41.119Z,8.78
2022-10-05T06:03:40.985Z,8.78
2022-10-05T06:04:41.126Z,8.78
2022-10-05T06:05:40.965Z,8.78
2022-10-05T06:06:40.945Z,8.80
2022-10-05T06:07:40.961Z,8.81
2022-10-05T06:08:40.925Z,8.84
2022-10-05T06:09:40.920Z,8.86
2022-10-05T06:10:41.084Z,8.89
2022-10-05T06:11:40.896Z,8.92
2022-10-05T06:12:40.884Z,8.96
2022-10-05T06:13:41.035Z,8.99
2022-10-05T06:14:40.975Z,9.03
2022-10-05T06:15:40.984Z,9.08
2022-10-05T06:16:41.177Z,9.12
2022-10-05T06:17:40.916Z,9.17
2022-10-05T06:18:40.922Z,9.22
2022-10-05T06:19:41.041Z,9.26
2022-10-05T06:20:40.994Z,9.31
2022-10-05T06:21:41.013Z,9.36
2022-10-05T06:22:41.079Z,9.40
2022-10-05T06:23:40.945Z,9.45
2022-10-05T06:24:40.877Z,9.49
2022-10-05T06:25:40.827Z,9.54
2022-10-05T06:26:40.796Z,9.59
2022-10-05T06:27:40.976Z,9.64
2022-10-05T06:28:41.397Z,9.69
2022-10-05T06:29:40.778Z,9.74
2022-10-05T06:30:40.950Z,9.78
2022-10-05T06:31:40.875Z,9.83
2022-10-05T06:32:40.852Z,9.87
2022-10-05T06:33:40.764Z,9.91
2022-10-05T06:34:40.944Z,9.95
2022-10-05T06:35:40.749Z,9.98
2022-10-05T06:36:40.737Z,10.02
2022-10-05T06:37:40.675Z,10.06
2022-10-05T06:38:40.729Z,10.10
2022-10-05T06:39:40.674Z,10.13
2022-10-05T06:40:40.804Z,10.17
2022-10-05T06:41:40.633Z,10.21
2022-10-05T06:42:40.704Z,10.24
2022-10-05T06:43:40.671Z,10.28
2022-10-05T06:44:40.728Z,10.32
2022-10-05T06:45:40.658Z,10.35
2022-10-05T06:46:40.804Z,10.38
2022-10-05T06:47:40.586Z,10.40
2022-10-05T06:48:40.596Z,10.43
2022-10-05T06:49:40.583Z,10.45
2022-10-05T06:50:40.604Z,10.47
2022-10-05T06:51:40.530Z,10.49
2022-10-05T06:52:40.761Z,10.50
2022-10-05T06:53:40.532Z,10.52
2022-10-05T06:54:40.542Z,10.54
2022-10-05T06:55:40.492Z,10.56
2022-10-05T06:56:40.473Z,10.59
2022-10-05T06:57:40.525Z,10.62
2022-10-05T06:58:40.563Z,10.65
2022-10-05T06:59:40.372Z,10.67
2022-10-05T07:00:40.362Z,10.70
2022-10-05T07:01:40.551Z,10.72
2022-10-05T07:02:40.447Z,10.74
2022-10-05T07:03:40.340Z,10.76
2022-10-05T07:04:40.516Z,10.79
2022-10-05T07:05:40.313Z,10.81
2022-10-05T07:06:40.306Z,10.83
2022-10-05T07:07:40.286Z,10.86
2022-10-05T07:08:40.273Z,10.89
2022-10-05T07:09:40.309Z,10.92
2022-10-05T07:10:40.289Z,10.95
2022-10-05T07:11:40.250Z,10.99
2022-10-05T07:12:40.253Z,11.02
2022-10-05T07:13:40.241Z,11.06
2022-10-05T07:14:40.211Z,11.09
2022-10-05T07:15:40.191Z,11.12
2022-10-05T07:16:40.488Z,11.15
2022-10-05T07:17:40.191Z,11.18
2022-10-05T07:18:40.199Z,11.22
2022-10-05T07:19:40.161Z,11.25
2022-10-05T07:20:40.153Z,11.29
2022-10-05T07:21:40.154Z,11.33
2022-10-05T07:22:40.292Z,11.36
2022-10-05T07:23:40.132Z,11.40
2022-10-05T07:24:40.102Z,11.43
2022-10-05T07:25:40.091Z,11.46
2022-10-05T07:26:40.094Z,11.50
2022-10-05T07:27:40.072Z,11.53
2022-10-05T07:28:40.285Z,11.56
2022-10-05T07:29:40.051Z,11.59
2022-10-05T07:30:40.121Z,11.61
2022-10-05T07:31:40.039Z,11.64
2022-10-05T07:32:40.027Z,11.68
2022-10-05T07:33:40.012Z,11.72
2022-10-05T07:34:40.193Z,11.77
2022-10-05T07:35:39.983Z,11.82
2022-10-05T07:36:39.980Z,11.87
2022-10-05T07:37:39.962Z,11.91
2022-10-05T07:38:39.950Z,11.96
2022-10-05T07:39:59.573Z,12.00
2022-10-05T07:40:41.332Z,12.06
2022-10-05T07:41:39.914Z,12.14
2022-10-05T07:42:47.324Z,12.23
2022-10-05T07:44:01.089Z,12.33
2022-10-05T07:44:40.900Z,12.41
2022-10-05T07:45:39.901Z,12.48
2022-10-05T07:46:40.018Z,12.53
2022-10-05T07:47:39.869Z,12.58
2022-10-05T07:48:39.841Z,12.63
2022-10-05T07:49:39.899Z,12.67
2022-10-05T07:50:39.850Z,12.71
2022-10-05T07:51:39.811Z,12.74
2022-10-05T07:52:39.822Z,12.78
2022-10-05T07:53:39.791Z,12.81
2022-10-05T07:54:39.772Z,12.85
2022-10-05T07:55:39.769Z,12.89
2022-10-05T07:56:39.762Z,12.95
2022-10-05T07:57:39.747Z,13.00
2022-10-05T07:58:39.965Z,13.05
2022-10-05T07:59:39.721Z,13.09
2022-10-05T08:00:39.712Z,13.13
2022-10-05T08:01:39.751Z,13.17
2022-10-05T08:02:39.761Z,13.22
2022-10-05T08:03:39.680Z,13.27
2022-10-05T08:04:41.900Z,13.30
2022-10-05T08:05:39.675Z,13.33
2022-10-05T08:06:39.645Z,13.36
2022-10-05T08:07:39.631Z,13.39
2022-10-05T08:08:39.647Z,13.42
2022-10-05T08:09:39.782Z,13.45
2022-10-05T08:10:39.633Z,13.49
2022-10-05T08:11:39.596Z,13.52
2022-10-05T08:12:39.581Z,13.55
2022-10-05T08:13:39.581Z,13.58
2022-10-05T08:14:39.579Z,13.60
2022-10-05T08:15:39.761Z,13.62
2022-10-05T08:16:39.588Z,13.64
2022-10-05T08:17:39.521Z,13.67
2022-10-05T08:18:39.520Z,13.69
2022-10-05T08:19:39.509Z,13.72
2022-10-05T08:20:39.532Z,13.75
2022-10-05T08:21:39.897Z,13.79
2022-10-05T08:22:39.469Z,13.83
2022-10-05T08:23:39.480Z,13.89
2022-10-05T08:24:39.471Z,13.93
2022-10-05T08:25:39.458Z,13.97
2022-10-05T08:26:39.437Z,14.00
2022-10-05T08:27:39.598Z,14.02
2022-10-05T08:28:39.467Z,14.03
2022-10-05T08:29:39.399Z,14.05
2022-10-05T08:30:39.391Z,14.08
2022-10-05T08:31:39.498Z,14.11
2022-10-05T08:32:39.372Z,14.14
2022-10-05T08:33:39.541Z,14.19
2022-10-05T08:34:39.345Z,14.24
2022-10-05T08:35:39.343Z,14.30
2022-10-05T08:36:39.321Z,14.35
2022-10-05T08:37:39.322Z,14.42
2022-10-05T08:38:39.302Z,14.51
2022-10-05T08:39:39.512Z,14.61
2022-10-05T08:40:39.271Z,14.71
2022-10-05T08:41:39.261Z,14.81
2022-10-05T08:42:39.280Z,14.90
2022-10-05T08:43:39.238Z,14.98
2022-10-05T08:44:39.250Z,15.05
2022-10-05T08:45:39.490Z,15.13
2022-10-05T08:46:39.286Z,15.20
2022-10-05T08:47:39.198Z,15.26
2022-10-05T08:48:39.192Z,15.29
2022-10-05T08:49:39.176Z,15.30
2022-10-05T08:50:39.187Z,15.31
2022-10-05T08:51:39.398Z,15.31
2022-10-05T08:52:39.150Z,15.31
2022-10-05T08:53:39.144Z,15.32
2022-10-05T08:54:39.142Z,15.34
2022-10-05T08:55:39.117Z,15.36
2022-10-05T08:56:39.124Z,15.37
2022-10-05T08:57:39.462Z,15.37
2022-10-05T08:58:39.149Z,15.36
2022-10-05T08:59:39.076Z,15.37
2022-10-05T09:00:39.094Z,15.37
2022-10-05T09:01:39.078Z,15.38
2022-10-05T09:02:39.086Z,15.39
2022-10-05T09:03:39.234Z,15.39
2022-10-05T09:04:39.018Z,15.40
2022-10-05T09:05:38.994Z,15.41
2022-10-05T09:06:38.993Z,15.44
2022-10-05T09:07:39.684Z,15.47
2022-10-05T09:08:38.964Z,15.51
2022-10-05T09:09:39.254Z,15.55
2022-10-05T09:10:38.945Z,15.59
2022-10-05T09:11:38.938Z,15.62
2022-10-05T09:12:38.932Z,15.66
2022-10-05T09:13:38.946Z,15.69
2022-10-05T09:14:38.898Z,15.73
2022-10-05T09:15:39.161Z,15.76
2022-10-05T09:16:38.882Z,15.76
2022-10-05T09:17:39.517Z,15.74
2022-10-05T09:18:38.854Z,15.72
2022-10-05T09:19:38.833Z,15.71
2022-10-05T09:20:38.844Z,15.70
2022-10-05T09:21:38.983Z,15.71
2022-10-05T09:22:38.819Z,15.74
2022-10-05T09:23:38.800Z,15.79
2022-10-05T09:24:38.814Z,15.86
2022-10-05T09:25:38.779Z,15.92
2022-10-05T09:26:38.781Z,15.98
2022-10-05T09:27:49.966Z,16.02
2022-10-05T09:28:46.275Z,16.07
2022-10-05T09:29:48.460Z,16.12
2022-10-05T09:30:46.325Z,16.17
2022-10-05T09:31:46.546Z,16.21
2022-10-05T09:32:46.230Z,16.25
2022-10-05T09:33:46.212Z,16.28
2022-10-05T09:34:46.247Z,16.31
2022-10-05T09:35:48.478Z,16.33
2022-10-05T09:36:46.172Z,16.33
2022-10-05T09:37:46.176Z,16.33
2022-10-05T09:38:46.169Z,16.33
2022-10-05T09:39:38.626Z,16.34
2022-10-05T09:40:38.617Z,16.36
2022-10-05T09:41:38.830Z,16.39
2022-10-05T09:42:38.606Z,16.43
2022-10-05T09:43:38.586Z,16.47
2022-10-05T09:44:38.597Z,16.51
2022-10-05T09:45:38.557Z,16.55
2022-10-05T09:46:38.682Z,16.58
2022-10-05T09:47:38.775Z,16.62
2022-10-05T09:48:38.527Z,16.64
2022-10-05T09:49:38.523Z,16.67
2022-10-05T09:50:38.507Z,16.70
2022-10-05T09:51:38.486Z,16.73
2022-10-05T09:52:38.485Z,16.77
2022-10-05T09:53:38.820Z,16.80
2022-10-05T09:54:38.480Z,16.83
2022-10-05T09:55:38.468Z,16.84
2022-10-05T09:56:38.436Z,16.85
2022-10-05T09:57:38.427Z,16.87
2022-10-05T09:58:38.419Z,16.89
2022-10-05T09:59:38.597Z,16.91
2022-10-05T10:00:38.417Z,16.93
2022-10-05T10:01:38.426Z,16.95
2022-10-05T10:02:38.509Z,16.96
2022-10-05T10:03:38.367Z,16.99
2022-10-05T10:04:38.358Z,17.02
2022-10-05T10:05:38.507Z,17.06
2022-10-05T10:06:38.361Z,17.10
2022-10-05T10:07:38.316Z,17.14
2022-10-05T10:08:38.308Z,17.17
2022-10-05T10:09:38.868Z,17.20
2022-10-05T10:10:38.295Z,17.24
2022-10-05T10:11:38.478Z,17.26
2022-10-05T10:12:38.267Z,17.27
2022-10-05T10:13:38.247Z,17.28
2022-10-05T10:14:38.255Z,17.29
2022-10-05T10:15:38.260Z,17.30
2022-10-05T10:16:38.226Z,17.32
2022-10-05T10:17:38.450Z,17.36
2022-10-05T10:18:38.209Z,17.40
2022-10-05T10:19:38.206Z,17.45
2022-10-05T10:20:38.200Z,17.50
2022-10-05T10:21:38.167Z,17.53
2022-10-05T10:22:42.812Z,17.54
2022-10-05T10:23:39.594Z,17.55
2022-10-05T10:24:38.140Z,17.54
2022-10-05T10:25:38.138Z,17.54
2022-10-05T10:26:38.118Z,17.55
2022-10-05T10:27:38.099Z,17.56
2022-10-05T10:28:38.187Z,17.59
2022-10-05T10:29:38.259Z,17.63
2022-10-05T10:30:38.069Z,17.69
2022-10-05T10:31:38.057Z,17.75
2022-10-05T10:32:38.048Z,17.81
2022-10-05T10:33:38.058Z,17.87
2022-10-05T10:34:38.059Z,17.92
2022-10-05T10:35:38.178Z,17.96
2022-10-05T10:36:37.997Z,17.99
2022-10-05T10:37:38.008Z,17.99
2022-10-05T10:38:38.006Z,18.00
2022-10-05T10:39:37.987Z,18.01
2022-10-05T10:40:37.957Z,18.03
2022-10-05T10:41:38.122Z,18.06
2022-10-05T10:42:37.957Z,18.11
2022-10-05T10:43:37.926Z,18.14
2022-10-05T10:44:37.928Z,18.18
2022-10-05T10:45:37.929Z,18.20
2022-10-05T10:46:38.042Z,18.21
2022-10-05T10:47:38.107Z,18.22
2022-10-05T10:48:37.868Z,18.23
2022-10-05T10:49:37.865Z,18.24
2022-10-05T10:50:37.861Z,18.26
2022-10-05T10:51:37.852Z,18.29
2022-10-05T10:52:46.558Z,18.33
2022-10-05T10:54:03.865Z,18.36
2022-10-05T10:54:45.633Z,18.37
2022-10-05T10:55:45.374Z,18.38
2022-10-05T10:56:45.524Z,18.39
2022-10-05T10:57:46.293Z,18.41
2022-10-05T10:58:46.501Z,18.44
2022-10-05T10:59:45.279Z,18.48
2022-10-05T11:00:45.238Z,18.51
2022-10-05T11:01:45.465Z,18.53
2022-10-05T11:02:45.300Z,18.54
2022-10-05T11:03:45.267Z,18.56
2022-10-05T11:04:51.076Z,18.59
2022-10-05T11:05:48.031Z,18.62
2022-10-05T11:06:37.674Z,18.65
2022-10-05T11:07:37.694Z,18.68
2022-10-05T11:08:37.689Z,18.69
2022-10-05T11:09:37.685Z,18.69
2022-10-05T11:10:37.823Z,18.70
2022-10-05T11:11:37.644Z,18.70
2022-10-05T11:12:37.674Z,18.69
2022-10-05T11:13:37.737Z,18.69
2022-10-05T11:14:37.679Z,18.70
2022-10-05T11:15:37.675Z,18.71
2022-10-05T11:16:37.899Z,18.72
2022-10-05T11:17:37.599Z,18.73
2022-10-05T11:18:37.555Z,18.74
2022-10-05T11:19:40.734Z,18.75
2022-10-05T11:20:38.749Z,18.76
2022-10-05T11:21:37.575Z,18.77
2022-10-05T11:22:37.736Z,18.78
2022-10-05T11:23:39.042Z,18.79
2022-10-05T11:24:37.516Z,18.80
2022-10-05T11:25:37.526Z,18.81
2022-10-05T11:26:37.483Z,18.83
2022-10-05T11:27:37.472Z,18.85
2022-10-05T11:28:37.911Z,18.87
2022-10-05T11:29:37.473Z,18.88
2022-10-05T11:30:37.419Z,18.88
2022-10-05T11:31:37.684Z,18.88
2022-10-05T11:32:37.444Z,18.89
2022-10-05T11:33:37.436Z,18.91
2022-10-05T11:34:37.728Z,18.92
2022-10-05T11:35:37.379Z,18.93
2022-10-05T11:36:37.407Z,18.94
2022-10-05T11:37:37.356Z,18.95
2022-10-05T11:38:37.345Z,18.95
2022-10-05T11:39:37.349Z,18.95
2022-10-05T11:40:38.096Z,18.94
2022-10-05T11:41:37.357Z,18.93
2022-10-05T11:42:38.276Z,18.92
2022-10-05T11:43:37.295Z,18.91
2022-10-05T11:44:37.286Z,18.90
2022-10-05T11:45:37.299Z,18.89
2022-10-05T11:46:58.454Z,18.88
2022-10-05T11:47:37.246Z,18.88
2022-10-05T11:48:37.244Z,18.87
2022-10-05T11:49:37.237Z,18.87
2022-10-05T11:50:37.268Z,18.87
2022-10-05T11:51:37.217Z,18.89
2022-10-05T11:52:37.446Z,18.91
2022-10-05T11:53:37.214Z,18.92
2022-10-05T11:54:58.479Z,18.94
2022-10-05T11:55:38.311Z,18.94
2022-10-05T11:56:37.297Z,18.95
2022-10-05T11:57:37.128Z,18.95
2022-10-05T11:58:37.307Z,18.97
2022-10-05T11:59:37.142Z,18.99
2022-10-05T12:00:37.101Z,19.01
2022-10-05T12:01:37.092Z,19.03
2022-10-05T12:02:39.956Z,19.05
2022-10-05T12:03:38.653Z,19.06
2022-10-05T12:04:37.069Z,19.08
2022-10-05T12:05:37.057Z,19.09
2022-10-05T12:06:37.057Z,19.10
2022-10-05T12:07:37.054Z,19.10
2022-10-05T12:08:37.152Z,19.10
2022-10-05T12:09:37.161Z,19.10
2022-10-05T12:10:37.029Z,19.10
2022-10-05T12:11:36.985Z,19.10
2022-10-05T12:12:37.090Z,19.11
2022-10-05T12:13:37.056Z,19.11
2022-10-05T12:14:36.962Z,19.11
2022-10-05T12:15:37.269Z,19.11
2022-10-05T12:16:36.945Z,19.11
2022-10-05T12:17:36.919Z,19.12
2022-10-05T12:18:36.937Z,19.13
2022-10-05T12:19:36.880Z,19.13
2022-10-05T12:20:36.893Z,19.14
2022-10-05T12:21:37.035Z,19.14
2022-10-05T12:22:36.882Z,19.15
2022-10-05T12:23:36.851Z,19.16
2022-10-05T12:24:36.925Z,19.18
2022-10-05T12:25:36.838Z,19.20
2022-10-05T12:26:36.838Z,19.20
2022-10-05T12:27:37.053Z,19.21
2022-10-05T12:28:36.802Z,19.21
2022-10-05T12:29:36.852Z,19.22
2022-10-05T12:30:36.829Z,19.24
2022-10-05T12:31:36.870Z,19.26
2022-10-05T12:32:36.772Z,19.28
2022-10-05T12:33:37.018Z,19.29
2022-10-05T12:34:36.779Z,19.31
2022-10-05T12:35:47.845Z,19.32
2022-10-05T12:37:02.520Z,19.34
2022-10-05T12:37:37.699Z,19.35
2022-10-05T12:38:36.699Z,19.36
2022-10-05T12:39:36.928Z,19.37
2022-10-05T12:40:36.679Z,19.38
2022-10-05T12:41:36.967Z,19.39
2022-10-05T12:42:41.472Z,19.40
2022-10-05T12:43:37.674Z,19.42
2022-10-05T12:44:36.656Z,19.43
2022-10-05T12:45:36.869Z,19.43
2022-10-05T12:46:36.613Z,19.42
2022-10-05T12:47:36.611Z,19.42
2022-10-05T12:48:36.628Z,19.41
2022-10-05T12:49:36.656Z,19.42
2022-10-05T12:50:36.571Z,19.43
2022-10-05T12:51:36.810Z,19.44
2022-10-05T12:52:36.551Z,19.45
2022-10-05T12:53:36.637Z,19.46
2022-10-05T12:54:36.569Z,19.47
2022-10-05T12:55:36.528Z,19.47
2022-10-05T12:56:36.499Z,19.47
2022-10-05T12:57:36.855Z,19.46
2022-10-05T12:58:36.482Z,19.46
2022-10-05T12:59:36.471Z,19.45
2022-10-05T13:00:36.531Z,19.45
2022-10-05T13:01:36.465Z,19.45
2022-10-05T13:02:36.462Z,19.45
2022-10-05T13:03:36.676Z,19.45
2022-10-05T13:04:36.435Z,19.46